• Join FlightAware (Why Join?)
  • Login
  • US Flag 
07:22PM EDT


 

Airport Tracker/Info


-or-


 

Live Flight TrackerFlight Track Log ✈ UAL4695 ✈ 24-Apr-2013 ✈ KEWR - KMHT

Flight Track Log - Related Links

Times and Time Zones

All times are in EDT time to prevent confusion due to time zone crossing. See the UAL4695 flight status page for this flight to view local times or setup timezone preferences in your user account.

Time Position Orientation Groundspeed Altitude Reporting Facility
EDT Latitude Longitude Course Direction KTS MPH feet Rate Location/Type
11:49PM 40.6500 -74.1833 194° South 173 199 2,000  Level New York TRACON
11:50PM 40.6000 -74.2000 194° South 207 238 3,800 1,860 Climbing New York TRACON
11:51PM 40.6500 -74.2500 323° Northwest 259 298 5,800 1,860 Climbing New York TRACON
11:52PM 40.7167 -74.1833 37° Northeast 295 339 7,600 1,980 Climbing New York TRACON
11:53PM 40.7667 -74.1000 52° Northeast 315 362 9,800 1,500 Climbing New York TRACON
11:54PM 40.8333 -74.0000 49° Northeast 363 418 10,600 900 Climbing New York TRACON
11:55PM 40.9000 -73.9000 49° Northeast 401 461 11,600 1,200 Climbing New York TRACON
11:56PM 41.0000 -73.8000 37° Northeast 403 464 13,200 1,080 Climbing New York TRACON
11:57PM 41.0667 -73.7333 37° Northeast 368 423 13,800 1,440 Climbing New York TRACON
11:58PM 41.2000 -73.6000 37° Northeast 414 476 16,100 1,500 Climbing New York TRACON
11:59PM 41.2833 -73.5167 37° Northeast 443 510 16,900 360 Climbing New York TRACON
12:01AM 41.4233 -73.3731 39° Northeast 457 526 17,000 660 Climbing Boston Center
12:02AM 41.5200 -73.2636 40° Northeast 465 535 18,600 1,500 Climbing Boston Center
12:03AM 41.6042 -73.1619 42° Northeast 454 522 20,000 1,200 Climbing Boston Center
12:04AM 41.7169 -73.1269 13° North 408 470 21,000 480 Climbing Boston Center
12:05AM 41.8397 -73.1450 354° North 408 470 21,000  Level Boston Center
12:06AM 41.9667 -73.1689 352° North 431 496 21,000  Level Boston Center
12:07AM 42.1103 -73.1900 354° North 453 521 21,000  Level Boston Center
12:08AM 42.2372 -73.2142 352° North 460 529 21,000 -360 Level Boston Center
12:09AM 42.3519 -73.2239 356° North 465 535 20,300 -900 Descending Boston Center
12:10AM 42.4811 -73.2339 357° North 465 535 19,300 -660 Descending Boston Center
12:11AM 42.5900 -73.1481 30° Northeast 421 484 19,000 -180 Descending Boston Center
12:12AM 42.6472 -72.9764 66° East 415 478 19,000  Level Boston Center
12:13AM 42.6831 -72.8297 72° East 423 487 19,000 -600 Level Boston Center
12:14AM 42.7169 -72.6661 74° East 434 499 17,800 -1,200 Descending Boston Center
12:15AM 42.7506 -72.5050 74° East 439 505 16,600 -1,260 Descending Boston Center
12:16AM 42.7839 -72.3467 74° East 439 505 15,300 -1,680 Descending Boston Center
12:17AM 42.8003 -72.1856 82° East 428 493 13,300 -2,520 Descending Boston Center
12:18AM 42.8436 -72.0322 69° East 418 481 10,300 -2,040 Descending Boston Center
12:19AM 42.9017 -71.9497 46° Northeast 354 407 9,300 -1,320 Descending Boston Center
12:20AM 42.9617 -71.8586 48° Northeast 307 353 7,700 -1,500 Descending Boston Center
12:21AM 43.0133 -71.7814 48° Northeast 295 339 6,300 -1,500 Descending Boston Center
12:22AM 43.0647 -71.6756 56° Northeast 295 339 4,700 -1,500 Descending Boston Center
12:23AM 43.0850 -71.5786 74° East 295 339 3,300 -1,200 Descending Boston Center
12:24AM 43.0531 -71.5081 122° Southeast 212 244 2,300 -720 Descending Boston Center
12:25AM 43.0133 -71.4861 158° South 169 194 1,900 -600 Descending Boston Center
12:26AM 42.9778 -71.4611 153° Southeast 148 170 1,100 -720 Descending Boston Center
12:27AM 42.9506 -71.4472 160° South 131 151 500 -360 Descending Boston Center
12:28AM 42.9150 -71.4308 161° South 131 151 400 9,240 Descending Boston Center
12:29AM 42.8836 -71.4172 162° South 131 151 19,000 9,300 Climbing Boston Center
12:30AM 42.8522 -71.4036 162° South 131 151 19,000  Level Boston Center
12:32AM 42.9167 -71.4333 316° Northwest  Level FlightAware Approximate